Time;durP1;ratioP1;P1;durP2;ratioP2;P2;SDS_P1;SDS_P2;PMS_P1;PMS_P2;Temp;Humidity;BMP_temperature;BMP_pressure;BME280_temperature;BME280_humidity;BME280_pressure;Samples;Min_cycle;Max_cycle;Signal;HPM_P1;HPM_P2
2022/01/19 00:01:19;;;;;;;23.20;12.38;;;3.50;92.30;;;;;;5076338;28;20039;-78
2022/01/19 00:03:46;;;;;;;23.73;11.20;;;3.50;92.40;;;;;;5076222;28;20040;-78
2022/01/19 00:06:15;;;;;;;23.60;9.95;;;3.50;92.60;;;;;;5074064;28;20117;-79
2022/01/19 00:08:42;;;;;;;20.30;10.35;;;3.50;92.70;;;;;;5076124;28;20415;-78
2022/01/19 00:11:09;;;;;;;24.52;10.88;;;3.60;92.70;;;;;;5076021;28;20024;-78
2022/01/19 00:13:37;;;;;;;27.02;12.50;;;3.50;92.80;;;;;;5075112;28;20107;-76
2022/01/19 00:16:04;;;;;;;22.55;11.65;;;3.60;92.80;;;;;;5074936;28;20074;-76
2022/01/19 00:18:31;;;;;;;28.85;11.82;;;3.60;92.80;;;;;;5075040;28;20029;-78
2022/01/19 00:20:58;;;;;;;24.70;12.07;;;3.50;93.10;;;;;;5058348;28;20048;-78
2022/01/19 00:23:25;;;;;;;28.02;11.52;;;3.50;92.90;;;;;;5074913;28;20024;-78
2022/01/19 00:25:53;;;;;;;20.90;11.18;;;3.50;93.10;;;;;;5058234;28;20043;-78
2022/01/19 00:28:22;;;;;;;31.30;12.43;;;3.50;93.10;;;;;;5074701;28;20104;-78
2022/01/19 00:30:49;;;;;;;28.52;12.07;;;3.50;93.20;;;;;;5074645;28;20031;-78
2022/01/19 00:33:19;;;;;;;25.73;12.50;;;3.50;93.20;;;;;;5074912;28;20028;-78
2022/01/19 00:35:47;;;;;;;24.65;11.40;;;3.50;93.20;;;;;;5075834;28;20491;-78
2022/01/19 00:38:13;;;;;;;25.73;10.80;;;3.50;93.40;;;;;;5074879;28;20078;-77
2022/01/19 00:40:40;;;;;;;30.55;12.90;;;3.50;93.40;;;;;;5058075;28;20025;-77
2022/01/19 00:43:07;;;;;;;30.50;12.13;;;3.50;93.50;;;;;;5073019;28;20032;-78
2022/01/19 00:45:35;;;;;;;26.98;11.65;;;3.50;93.50;;;;;;5074606;28;20036;-78
2022/01/19 00:48:03;;;;;;;26.90;12.38;;;3.40;93.50;;;;;;5074466;28;20043;-78
2022/01/19 00:50:31;;;;;;;27.83;12.48;;;3.40;93.60;;;;;;5074310;28;20465;-78
2022/01/19 00:52:59;;;;;;;23.63;11.25;;;3.40;93.70;;;;;;5075686;28;20017;-78
2022/01/19 00:55:27;;;;;;;28.27;12.40;;;3.30;94.20;;;;;;5074433;28;20036;-79
2022/01/19 00:57:57;;;;;;;20.75;11.60;;;3.30;94.00;;;;;;5057182;28;20071;-78
2022/01/19 01:00:26;;;;;;;27.40;11.27;;;3.30;94.10;;;;;;5074277;28;20025;-79
2022/01/19 01:02:54;;;;;;;24.35;10.85;;;3.30;94.30;;;;;;5074210;28;20441;-77
2022/01/19 01:05:22;;;;;;;22.63;11.02;;;3.30;94.30;;;;;;5075498;28;20039;-77
2022/01/19 01:07:49;;;;;;;27.67;12.07;;;3.20;94.40;;;;;;5073965;28;20017;-77
2022/01/19 01:10:20;;;;;;;20.42;11.48;;;3.20;94.60;;;;;;5071026;28;20124;-78
2022/01/19 01:13:05;;;;;;;25.38;10.75;;;3.20;94.80;;;;;;5075069;28;20063;-78
2022/01/19 01:16:01;;;;;;;26.33;11.15;;;3.20;94.90;;;;;;5075419;28;20464;-78
2022/01/19 01:18:39;;;;;;;21.13;10.00;;;3.20;95.00;;;;;;5075066;28;20042;-79
2022/01/19 01:21:05;;;;;;;20.38;9.35;;;3.30;95.00;;;;;;5075293;28;20020;-78
2022/01/19 01:23:41;;;;;;;22.85;10.38;;;3.30;95.00;;;;;;5075085;28;20025;-78
2022/01/19 01:26:07;;;;;;;22.45;10.23;;;3.30;95.20;;;;;;5075043;28;20024;-78
2022/01/19 01:28:34;;;;;;;26.13;11.30;;;3.30;95.30;;;;;;5073609;28;20024;-78
2022/01/19 01:31:00;;;;;;;19.70;9.95;;;3.30;95.20;;;;;;5073629;28;20079;-78
2022/01/19 01:33:28;;;;;;;24.67;9.77;;;3.30;95.30;;;;;;5073500;28;20059;-78
2022/01/19 01:35:55;;;;;;;17.80;9.65;;;3.30;95.30;;;;;;5074740;28;20020;-78
2022/01/19 01:38:23;;;;;;;19.65;9.50;;;3.30;95.40;;;;;;5073435;28;20070;-77
2022/01/19 01:40:49;;;;;;;23.67;8.68;;;3.30;95.50;;;;;;5073199;28;20021;-77
2022/01/19 01:43:16;;;;;;;15.65;9.02;;;3.30;95.60;;;;;;5073170;28;20032;-77
2022/01/19 01:45:46;;;;;;;18.63;8.85;;;3.30;95.60;;;;;;5074333;28;20025;-78
2022/01/19 01:48:19;;;;;;;14.85;7.95;;;3.30;95.80;;;;;;5073223;28;20021;-78
2022/01/19 01:53:33;;;;;;;16.70;8.38;;;3.20;95.90;;;;;;5073433;28;20035;-77
2022/01/19 01:56:16;;;;;;;18.75;8.82;;;3.30;95.90;;;;;;5056446;28;20025;-78
2022/01/19 01:58:44;;;;;;;20.63;8.70;;;3.20;96.10;;;;;;5057277;28;20060;-77
2022/01/19 02:01:12;;;;;;;17.35;8.75;;;3.20;96.30;;;;;;5056579;28;20036;-78
2022/01/19 02:04:03;;;;;;;21.55;9.10;;;3.20;96.10;;;;;;5072187;28;20029;-78
2022/01/19 02:06:42;;;;;;;16.55;8.68;;;3.20;96.20;;;;;;5072853;28;20024;-76
2022/01/19 02:09:34;;;;;;;18.15;9.15;;;3.20;96.20;;;;;;5072885;28;20461;-79
2022/01/19 02:23:27;;;;;;;27.15;11.02;;;3.10;95.80;;;;;;5073032;28;20641;-78
2022/01/19 02:25:57;;;;;;;22.73;11.23;;;3.20;95.60;;;;;;5074515;28;20472;-78
2022/01/19 02:42:13;;;;;;;19.05;9.10;;;3.30;94.90;;;;;;5073589;28;20140;-77
2022/01/19 02:49:52;;;;;;;16.75;8.57;;;3.30;94.40;;;;;;5073909;28;20033;-78
2022/01/19 02:52:27;;;;;;;21.50;8.23;;;3.20;94.40;;;;;;5056090;28;20025;-79
2022/01/19 02:54:53;;;;;;;13.82;6.78;;;3.20;94.40;;;;;;5072674;28;20024;-79
2022/01/19 02:57:24;;;;;;;17.73;8.10;;;3.20;94.40;;;;;;5073155;28;20476;-78
2022/01/19 03:10:41;;;;;;;15.15;6.88;;;3.20;94.50;;;;;;5073500;28;20082;-78
2022/01/19 03:13:06;;;;;;;13.75;6.55;;;3.20;94.60;;;;;;5071881;28;20115;-79
2022/01/19 03:15:35;;;;;;;17.50;7.10;;;3.20;94.40;;;;;;5073358;28;20104;-78
2022/01/19 03:18:01;;;;;;;16.95;6.57;;;3.20;94.50;;;;;;5073157;28;20469;-78
2022/01/19 03:20:29;;;;;;;15.02;7.22;;;3.30;94.30;;;;;;5072108;28;20051;-77
2022/01/19 03:23:12;;;;;;;12.00;5.82;;;3.30;94.20;;;;;;5072162;28;20029;-78
2022/01/19 03:25:41;;;;;;;10.50;6.38;;;3.30;94.10;;;;;;5073201;28;20013;-79
2022/01/19 03:28:08;;;;;;;13.07;6.28;;;3.30;94.00;;;;;;5073300;28;20024;-78
2022/01/19 03:30:36;;;;;;;15.27;7.30;;;3.30;94.00;;;;;;5072005;28;20035;-78
2022/01/19 03:33:03;;;;;;;13.60;6.60;;;3.30;94.00;;;;;;5071822;28;20047;-78
2022/01/19 03:35:31;;;;;;;11.88;7.00;;;3.30;94.00;;;;;;5071893;28;20025;-78
2022/01/19 03:37:57;;;;;;;13.00;7.20;;;3.30;94.00;;;;;;5071774;28;20031;-78
2022/01/19 03:40:24;;;;;;;16.05;6.60;;;3.40;94.10;;;;;;5071760;28;20017;-78
2022/01/19 03:42:51;;;;;;;13.38;7.45;;;3.40;93.90;;;;;;5071730;28;20032;-77
2022/01/19 03:45:26;;;;;;;13.05;6.53;;;3.40;94.00;;;;;;5071977;28;20076;-78
2022/01/19 03:48:13;;;;;;;16.30;7.93;;;3.40;94.00;;;;;;5071619;28;20028;-77
2022/01/19 03:50:39;;;;;;;14.70;6.43;;;3.40;93.90;;;;;;5072743;28;20027;-77
2022/01/19 03:53:07;;;;;;;18.38;7.47;;;3.40;94.00;;;;;;5071726;28;20024;-78
2022/01/19 03:55:33;;;;;;;13.88;6.90;;;3.40;94.00;;;;;;5072839;28;20063;-77
2022/01/19 03:58:00;;;;;;;15.88;7.22;;;3.40;94.10;;;;;;5072555;28;20048;-77
2022/01/19 04:00:28;;;;;;;14.02;6.93;;;3.30;94.10;;;;;;5072915;28;20545;-77
2022/01/19 04:03:02;;;;;;;13.60;7.05;;;3.30;94.10;;;;;;5072814;28;20035;-77
2022/01/19 04:08:28;;;;;;;15.60;7.85;;;3.30;94.30;;;;;;5076724;28;20032;-78
2022/01/19 04:10:56;;;;;;;14.80;8.60;;;3.30;94.40;;;;;;5072732;28;20074;-78
2022/01/19 04:13:44;;;;;;;18.58;8.20;;;3.30;94.30;;;;;;5071546;28;20108;-78
2022/01/19 04:16:12;;;;;;;14.18;7.78;;;3.40;94.10;;;;;;5071367;28;20017;-77
2022/01/19 04:18:40;;;;;;;18.48;8.18;;;3.40;94.20;;;;;;5074356;28;20104;-77
2022/01/19 04:21:07;;;;;;;13.57;7.70;;;3.40;93.90;;;;;;5074962;28;20431;-77
2022/01/19 04:23:34;;;;;;;16.38;6.57;;;3.40;93.90;;;;;;5074845;28;20056;-77
2022/01/19 04:26:03;;;;;;;16.83;6.60;;;3.50;93.80;;;;;;5074707;28;20021;-77
2022/01/19 04:28:30;;;;;;;14.68;6.57;;;3.50;93.60;;;;;;5076145;28;20083;-77
2022/01/19 04:30:58;;;;;;;14.73;7.00;;;3.50;93.60;;;;;;5075951;28;20225;-76
2022/01/19 04:33:27;;;;;;;16.55;6.90;;;3.50;93.20;;;;;;5076017;28;20028;-76
2022/01/19 04:36:05;;;;;;;11.70;6.82;;;3.50;93.10;;;;;;5075643;28;20020;-76
2022/01/19 04:47:23;;;;;;;18.50;7.15;;;3.50;93.00;;;;;;5075829;28;20033;-78
2022/01/19 05:03:44;;;;;;;9.15;6.43;;;3.50;93.30;;;;;;5073409;28;20105;-78
2022/01/19 05:06:15;;;;;;;12.13;6.32;;;3.50;93.40;;;;;;5073533;28;20032;-78
2022/01/19 05:09:01;;;;;;;10.23;5.70;;;3.50;92.90;;;;;;5073193;28;20025;-78
2022/01/19 05:14:11;;;;;;;11.82;5.65;;;3.50;92.70;;;;;;5073243;28;20055;-78
2022/01/19 05:16:39;;;;;;;10.90;5.13;;;3.50;92.60;;;;;;5072970;28;20473;-77
2022/01/19 05:19:05;;;;;;;11.68;6.07;;;3.50;92.60;;;;;;5072779;28;20021;-78
2022/01/19 05:21:40;;;;;;;11.45;6.28;;;3.50;92.50;;;;;;5055137;28;20044;-78
2022/01/19 05:24:07;;;;;;;12.13;6.47;;;3.50;92.60;;;;;;5075052;28;20028;-77
2022/01/19 05:26:36;;;;;;;10.27;6.32;;;3.50;92.70;;;;;;5074852;28;20017;-77
2022/01/19 05:29:03;;;;;;;12.05;7.38;;;3.50;92.70;;;;;;5074417;28;20487;-77
2022/01/19 05:31:31;;;;;;;14.93;7.35;;;3.50;92.80;;;;;;5073727;28;20036;-78
2022/01/19 05:33:58;;;;;;;13.70;6.43;;;3.50;92.80;;;;;;5056900;28;20074;-77
2022/01/19 05:36:34;;;;;;;20.58;9.05;;;3.50;92.80;;;;;;5074899;28;20056;-78
2022/01/19 05:39:08;;;;;;;11.68;7.85;;;3.50;92.80;;;;;;5073133;28;20066;-77
2022/01/19 05:41:36;;;;;;;13.98;6.22;;;3.50;92.70;;;;;;5074727;28;20102;-78
2022/01/19 05:44:04;;;;;;;14.23;7.28;;;3.50;92.80;;;;;;5074574;28;20021;-78
2022/01/19 05:46:32;;;;;;;17.73;7.68;;;3.40;92.70;;;;;;5074276;28;20473;-78
2022/01/19 05:49:01;;;;;;;21.02;6.93;;;3.40;92.80;;;;;;5073225;28;20024;-78
2022/01/19 05:51:29;;;;;;;14.18;6.45;;;3.40;92.70;;;;;;5074085;28;20051;-77
2022/01/19 05:53:57;;;;;;;15.75;6.50;;;3.40;92.80;;;;;;5073039;28;20500;-78
2022/01/19 05:56:24;;;;;;;15.32;7.32;;;3.40;92.80;;;;;;5072792;28;20094;-79
2022/01/19 05:58:52;;;;;;;13.30;6.80;;;3.30;92.80;;;;;;5073809;28;20106;-78
2022/01/19 06:01:18;;;;;;;16.13;7.50;;;3.30;93.40;;;;;;5074454;28;20024;-78
2022/01/19 06:03:53;;;;;;;15.77;7.38;;;3.30;93.00;;;;;;5073845;28;20032;-79
2022/01/19 06:06:21;;;;;;;15.68;8.10;;;3.30;93.10;;;;;;5073849;28;20082;-79
2022/01/19 06:08:59;;;;;;;15.50;7.80;;;3.30;93.20;;;;;;5073826;28;20024;-78
2022/01/19 06:11:25;;;;;;;14.27;8.98;;;3.20;93.20;;;;;;5072519;28;20025;-78
2022/01/19 06:13:51;;;;;;;13.52;6.90;;;3.20;93.30;;;;;;5072543;28;20066;-77
2022/01/19 06:16:17;;;;;;;17.45;8.65;;;3.20;93.30;;;;;;5072658;28;20032;-78
2022/01/19 06:18:43;;;;;;;16.55;7.90;;;3.20;93.40;;;;;;5073795;28;20037;-78
2022/01/19 06:21:12;;;;;;;17.80;8.70;;;3.20;93.30;;;;;;5073701;28;20032;-78
2022/01/19 06:23:40;;;;;;;15.98;8.02;;;3.20;93.40;;;;;;5073658;28;20020;-79
2022/01/19 06:26:07;;;;;;;15.23;8.38;;;3.20;93.40;;;;;;5072360;28;20097;-78
2022/01/19 06:28:34;;;;;;;17.45;8.93;;;3.20;93.50;;;;;;5071975;28;20086;-78
2022/01/19 06:31:01;;;;;;;18.48;8.82;;;3.20;93.50;;;;;;5071899;28;20032;-78
2022/01/19 06:33:28;;;;;;;17.35;8.82;;;3.10;93.40;;;;;;5060977;28;20419;-77
2022/01/19 06:36:08;;;;;;;16.75;8.73;;;3.20;93.50;;;;;;5054399;28;20048;-79
2022/01/19 06:38:35;;;;;;;15.75;8.93;;;3.20;93.50;;;;;;5054195;28;20021;-77
2022/01/19 06:41:03;;;;;;;16.20;8.25;;;3.20;93.50;;;;;;5053436;28;20051;-75
2022/01/19 06:43:30;;;;;;;19.40;8.38;;;3.20;93.50;;;;;;5053323;28;20064;-76
2022/01/19 06:46:00;;;;;;;14.90;7.72;;;3.20;93.40;;;;;;5051899;28;20086;-75
2022/01/19 06:48:28;;;;;;;19.38;9.50;;;3.20;93.40;;;;;;5051621;28;20367;-75
2022/01/19 06:50:56;;;;;;;15.57;8.05;;;3.20;93.40;;;;;;5053446;28;20116;-77
2022/01/19 06:53:24;;;;;;;17.23;9.15;;;3.20;93.40;;;;;;5051963;28;20013;-77
2022/01/19 06:56:00;;;;;;;18.63;9.18;;;3.20;93.50;;;;;;5053665;28;20373;-76
2022/01/19 06:58:28;;;;;;;14.82;8.50;;;3.20;93.60;;;;;;5050853;28;20132;-76
2022/01/19 07:00:56;;;;;;;17.13;8.35;;;3.10;93.40;;;;;;5035236;28;20481;-78
2022/01/19 07:03:22;;;;;;;15.90;8.15;;;3.10;93.40;;;;;;5053007;28;20033;-79
2022/01/19 07:05:51;;;;;;;16.20;7.40;;;3.10;93.40;;;;;;5048548;28;20032;-79
2022/01/19 07:08:17;;;;;;;18.75;8.43;;;3.10;93.40;;;;;;5073349;28;20029;-79
2022/01/19 07:10:43;;;;;;;17.88;9.60;;;3.10;93.40;;;;;;5077618;28;20083;-79
2022/01/19 07:13:09;;;;;;;20.73;8.77;;;3.10;93.40;;;;;;5070577;28;20473;-79
2022/01/19 07:15:47;;;;;;;16.27;8.55;;;3.10;93.40;;;;;;5071886;28;20028;-77
2022/01/19 07:18:15;;;;;;;18.63;9.45;;;3.10;93.50;;;;;;5056850;28;20036;-79
2022/01/19 07:20:41;;;;;;;15.88;8.20;;;3.10;93.40;;;;;;5055087;28;20113;-76
2022/01/19 07:23:07;;;;;;;20.08;9.25;;;3.20;93.50;;;;;;5071729;28;20021;-78
2022/01/19 07:25:34;;;;;;;20.98;11.02;;;3.20;93.40;;;;;;5054883;28;20094;-78
2022/01/19 07:28:01;;;;;;;20.77;10.93;;;3.20;93.40;;;;;;5073059;28;20100;-79
2022/01/19 07:30:28;;;;;;;24.83;12.90;;;3.30;93.20;;;;;;5072350;28;20020;-77
2022/01/19 07:32:55;;;;;;;22.55;10.13;;;3.30;93.10;;;;;;5072213;28;20016;-79
2022/01/19 07:35:23;;;;;;;26.73;12.13;;;3.30;93.30;;;;;;5073690;28;20050;-76
2022/01/19 07:37:50;;;;;;;22.33;11.90;;;3.30;93.50;;;;;;5075869;28;20084;-77
2022/01/19 07:40:18;;;;;;;26.17;11.15;;;3.30;93.80;;;;;;5072182;28;20544;-77
2022/01/19 07:42:46;;;;;;;22.65;11.18;;;3.30;94.00;;;;;;5071424;28;20048;-78
2022/01/19 07:45:14;;;;;;;25.50;11.43;;;3.40;94.10;;;;;;5072834;28;20054;-76
2022/01/19 07:47:40;;;;;;;24.67;11.38;;;3.40;94.00;;;;;;5072006;28;20025;-77
2022/01/19 07:50:07;;;;;;;22.23;11.18;;;3.40;93.80;;;;;;5055766;28;20060;-78
2022/01/19 07:52:36;;;;;;;25.92;11.05;;;3.40;93.50;;;;;;5073474;28;20020;-77
2022/01/19 07:55:04;;;;;;;26.77;11.43;;;3.40;93.40;;;;;;5077099;28;20055;-78
2022/01/19 07:57:30;;;;;;;23.23;11.13;;;3.40;92.90;;;;;;5076293;28;20045;-77
2022/01/19 07:59:58;;;;;;;25.08;11.15;;;3.40;92.70;;;;;;5084818;28;20039;-77
2022/01/19 08:02:32;;;;;;;22.15;12.05;;;3.30;92.30;;;;;;5073850;28;20092;-78
2022/01/19 08:05:00;;;;;;;19.45;10.93;;;3.30;92.50;;;;;;5062092;28;20087;-78
2022/01/19 08:07:26;;;;;;;25.42;12.25;;;3.30;92.40;;;;;;5070774;28;20077;-75
2022/01/19 08:09:53;;;;;;;21.27;11.63;;;3.30;92.50;;;;;;5075435;28;20024;-77
2022/01/19 08:12:20;;;;;;;23.88;11.88;;;3.40;92.40;;;;;;5077440;28;20021;-78
2022/01/19 08:14:49;;;;;;;24.15;11.48;;;3.30;92.50;;;;;;5076744;28;20021;-75
2022/01/19 08:17:19;;;;;;;21.30;11.38;;;3.30;92.80;;;;;;5076179;28;20049;-76
2022/01/19 08:19:45;;;;;;;24.92;11.40;;;3.40;93.00;;;;;;5076317;28;20421;-80
2022/01/19 08:22:11;;;;;;;25.88;10.05;;;3.50;92.80;;;;;;5074460;28;20473;-78
2022/01/19 08:24:38;;;;;;;20.80;10.05;;;3.50;92.30;;;;;;5074794;28;20040;-80
2022/01/19 08:27:19;;;;;;;18.00;9.80;;;3.50;92.20;;;;;;5075618;28;20032;-77
2022/01/19 08:29:45;;;;;;;20.42;9.95;;;3.50;92.50;;;;;;5074111;28;20031;-80
2022/01/19 08:32:12;;;;;;;20.52;10.75;;;3.60;92.30;;;;;;5074310;28;20017;-78
2022/01/19 08:34:40;;;;;;;24.02;10.43;;;3.80;92.10;;;;;;5075549;28;20500;-77
2022/01/19 08:37:28;;;;;;;19.83;9.65;;;4.10;91.70;;;;;;5073938;28;20107;-79
2022/01/19 08:40:02;;;;;;;17.05;9.70;;;4.50;90.30;;;;;;5074668;28;20024;-78
2022/01/19 08:42:33;;;;;;;21.40;10.52;;;4.80;89.20;;;;;;5074207;28;20025;-81
2022/01/19 08:45:04;;;;;;;19.60;11.63;;;5.00;86.70;;;;;;5089629;28;20119;-78
2022/01/19 08:47:53;;;;;;;20.42;9.95;;;5.10;86.00;;;;;;5073075;28;20029;-77
2022/01/19 08:50:19;;;;;;;25.60;11.73;;;5.20;85.10;;;;;;5073068;28;20063;-78
2022/01/19 08:52:47;;;;;;;20.40;10.60;;;5.20;85.60;;;;;;5073642;28;20078;-81
2022/01/19 08:55:15;;;;;;;22.83;10.75;;;5.40;86.50;;;;;;5074176;28;20035;-77
2022/01/19 08:57:47;;;;;;;19.58;10.70;;;5.50;84.40;;;;;;5072622;28;20128;-75
2022/01/19 09:00:20;;;;;;;23.33;10.13;;;5.60;83.70;;;;;;5089746;28;20111;-79
2022/01/19 09:02:46;;;;;;;19.95;10.60;;;5.70;83.20;;;;;;5072687;28;20082;-78
2022/01/19 09:05:15;;;;;;;23.33;11.88;;;5.60;83.00;;;;;;5071506;28;20033;-78
2022/01/19 09:07:41;;;;;;;26.60;12.00;;;5.60;83.70;;;;;;5074246;28;20021;-79
2022/01/19 09:10:10;;;;;;;21.60;10.93;;;5.70;83.50;;;;;;5089348;28;20062;-78
2022/01/19 09:12:38;;;;;;;22.38;12.77;;;5.80;83.30;;;;;;5073630;28;20033;-78
2022/01/19 09:15:06;;;;;;;28.42;13.70;;;6.00;83.00;;;;;;5075028;28;20024;-78
2022/01/19 09:17:41;;;;;;;24.73;12.75;;;6.20;82.50;;;;;;5073645;28;20073;-76
2022/01/19 09:20:24;;;;;;;24.55;12.05;;;6.30;81.70;;;;;;5073931;28;20025;-78
2022/01/19 09:22:52;;;;;;;23.98;11.43;;;6.30;80.00;;;;;;5073566;28;20025;-77
2022/01/19 09:25:17;;;;;;;20.25;11.57;;;6.10;79.60;;;;;;5074430;28;20082;-78
2022/01/19 09:27:45;;;;;;;20.38;12.18;;;6.00;80.70;;;;;;5075176;28;20053;-79
2022/01/19 09:30:15;;;;;;;23.65;13.20;;;6.00;80.20;;;;;;5074561;28;20495;-76
2022/01/19 09:32:54;;;;;;;25.73;12.88;;;6.00;80.70;;;;;;5073608;28;20362;-79
2022/01/19 09:35:25;;;;;;;21.88;12.65;;;6.00;81.20;;;;;;5074520;28;20024;-77
2022/01/19 09:37:52;;;;;;;24.05;12.35;;;5.90;81.70;;;;;;5074331;28;20105;-79
2022/01/19 09:40:38;;;;;;;36.28;13.45;;;6.00;81.30;;;;;;5073350;28;20387;-78
2022/01/19 09:43:08;;;;;;;20.60;10.98;;;6.00;80.90;;;;;;5074646;28;20025;-78
2022/01/19 09:45:34;;;;;;;17.50;9.98;;;5.90;81.80;;;;;;5075379;28;20046;-78
2022/01/19 09:48:02;;;;;;;19.95;9.50;;;5.90;81.70;;;;;;5073263;28;20378;-79
2022/01/19 09:50:28;;;;;;;16.70;9.75;;;6.00;81.40;;;;;;5074096;28;20480;-81
2022/01/19 09:53:05;;;;;;;17.80;9.00;;;6.00;80.60;;;;;;5073157;28;20749;-81
2022/01/19 09:55:38;;;;;;;10.85;6.32;;;6.00;79.70;;;;;;5074747;28;20075;-80
2022/01/19 09:58:21;;;;;;;18.90;9.98;;;6.00;79.60;;;;;;5072888;28;20040;-77
2022/01/19 10:00:47;;;;;;;19.75;10.05;;;6.00;80.30;;;;;;5057001;28;20048;-77
2022/01/19 10:03:14;;;;;;;21.13;11.90;;;5.90;80.70;;;;;;5075253;28;20107;-78
2022/01/19 10:06:03;;;;;;;16.17;9.05;;;5.90;81.00;;;;;;5076010;28;20029;-78
2022/01/19 10:08:38;;;;;;;21.50;11.20;;;5.90;81.30;;;;;;5075613;28;20024;-79
2022/01/19 10:17:02;;;;;;;18.48;9.57;;;6.10;80.70;;;;;;5069850;28;20036;-77
2022/01/19 10:19:45;;;;;;;14.98;8.88;;;6.20;80.80;;;;;;5072279;28;20027;-76
2022/01/19 10:22:25;;;;;;;15.85;8.43;;;6.20;80.20;;;;;;5073428;28;20036;-77
2022/01/19 10:25:04;;;;;;;17.42;9.85;;;6.30;79.70;;;;;;5073559;28;20048;-76
2022/01/19 10:27:37;;;;;;;17.70;9.05;;;6.30;80.10;;;;;;5072058;28;20182;-78
2022/01/19 10:30:04;;;;;;;16.98;9.90;;;6.30;79.20;;;;;;5073322;28;20017;-76
2022/01/19 10:32:51;;;;;;;20.67;10.00;;;6.40;80.00;;;;;;5073274;28;20033;-76
2022/01/19 10:35:30;;;;;;;19.92;10.45;;;6.50;80.40;;;;;;5073524;28;20028;-78
2022/01/19 10:38:19;;;;;;;19.48;10.00;;;6.60;79.40;;;;;;5071836;28;20048;-82
2022/01/19 10:41:08;;;;;;;18.88;9.52;;;6.70;78.90;;;;;;5073538;28;20043;-78
2022/01/19 10:43:48;;;;;;;17.38;7.47;;;6.80;78.80;;;;;;5054153;28;20024;-77
2022/01/19 10:46:33;;;;;;;12.95;8.43;;;6.80;77.80;;;;;;5073181;28;20052;-77
2022/01/19 10:49:08;;;;;;;16.77;8.52;;;6.80;78.30;;;;;;5054427;28;20347;-77
2022/01/19 10:51:39;;;;;;;14.43;8.73;;;6.80;79.20;;;;;;5052617;28;20056;-76
2022/01/19 10:54:21;;;;;;;18.47;9.53;;;6.80;78.90;;;;;;5051927;28;20021;-76
2022/01/19 10:56:58;;;;;;;15.52;8.27;;;6.80;78.20;;;;;;5052832;28;20032;-76
2022/01/19 10:59:29;;;;;;;13.70;8.60;;;6.70;78.40;;;;;;5052742;28;20047;-76
2022/01/19 11:01:59;;;;;;;15.15;8.85;;;6.70;78.70;;;;;;5053246;28;20037;-76
2022/01/19 11:04:33;;;;;;;17.35;9.00;;;6.70;78.30;;;;;;5035175;28;20025;-74
2022/01/19 11:07:22;;;;;;;16.23;8.45;;;6.70;78.80;;;;;;5053109;28;20481;-76
2022/01/19 11:09:59;;;;;;;16.52;8.70;;;6.70;78.70;;;;;;5051831;28;20538;-75
2022/01/19 11:12:29;;;;;;;16.02;8.13;;;6.60;79.10;;;;;;5053412;28;20039;-78
2022/01/19 11:14:56;;;;;;;18.55;9.00;;;6.60;79.10;;;;;;5053416;28;20469;-77
2022/01/19 11:17:23;;;;;;;14.90;8.27;;;6.60;78.60;;;;;;5051653;28;20055;-77
2022/01/19 11:19:50;;;;;;;16.98;8.75;;;6.50;78.10;;;;;;5051606;28;20018;-78
2022/01/19 11:22:36;;;;;;;14.80;9.00;;;6.50;78.90;;;;;;5051729;28;20033;-76
2022/01/19 11:25:24;;;;;;;18.23;10.13;;;6.40;79.40;;;;;;5053134;28;20029;-74
2022/01/19 11:27:51;;;;;;;14.02;9.05;;;6.40;80.30;;;;;;5054725;28;20499;-76
2022/01/19 11:30:29;;;;;;;16.98;8.65;;;6.40;79.60;;;;;;5056015;28;20021;-77
2022/01/19 11:33:26;;;;;;;19.83;9.60;;;6.40;80.00;;;;;;5056999;28;20032;-74
2022/01/19 11:36:16;;;;;;;16.95;9.82;;;6.40;80.10;;;;;;5056844;28;20067;-76
2022/01/19 11:38:48;;;;;;;16.63;8.57;;;6.40;81.00;;;;;;5056027;28;20474;-77
2022/01/19 11:41:16;;;;;;;19.17;9.43;;;6.40;80.30;;;;;;5068808;28;20029;-74
2022/01/19 11:43:52;;;;;;;14.85;9.27;;;6.40;79.80;;;;;;5076561;28;20036;-74
2022/01/19 11:46:43;;;;;;;19.58;10.48;;;6.40;80.90;;;;;;5075102;28;20480;-74
2022/01/19 11:49:11;;;;;;;12.88;8.75;;;6.40;81.10;;;;;;5076176;28;20028;-73
2022/01/19 11:51:40;;;;;;;22.88;10.40;;;6.40;79.80;;;;;;5076036;28;20495;-74
2022/01/19 11:54:42;;;;;;;13.60;8.98;;;6.40;80.00;;;;;;5074756;28;20113;-77
2022/01/19 11:57:15;;;;;;;17.25;9.50;;;6.30;80.30;;;;;;5073984;28;20130;-75
2022/01/19 11:59:44;;;;;;;17.30;10.30;;;6.30;80.40;;;;;;5075826;28;20541;-77
2022/01/19 12:02:32;;;;;;;18.50;9.45;;;6.30;80.50;;;;;;5076387;28;20017;-76
2022/01/19 12:05:12;;;;;;;23.70;11.15;;;6.30;80.50;;;;;;5074913;28;20032;-76
2022/01/19 12:07:45;;;;;;;18.85;10.15;;;6.30;80.20;;;;;;5074815;28;20020;-74
2022/01/19 12:10:13;;;;;;;15.57;10.13;;;6.20;80.00;;;;;;5076090;28;20063;-73
2022/01/19 12:12:57;;;;;;;19.75;10.68;;;6.20;80.20;;;;;;5074688;28;20177;-76
2022/01/19 12:15:46;;;;;;;20.88;10.35;;;6.20;80.90;;;;;;5076145;28;20028;-80
2022/01/19 12:18:53;;;;;;;21.73;11.00;;;6.10;81.20;;;;;;5077875;28;20020;-81
2022/01/19 12:21:31;;;;;;;22.45;11.13;;;6.20;81.30;;;;;;5075983;28;20036;-75
2022/01/19 12:24:24;;;;;;;20.27;11.70;;;6.20;82.10;;;;;;5075779;28;20056;-76
2022/01/19 12:27:14;;;;;;;20.67;12.23;;;6.20;81.80;;;;;;5074454;28;20032;-74
2022/01/19 12:29:50;;;;;;;18.58;11.25;;;6.20;81.70;;;;;;5074559;28;20444;-79
2022/01/19 12:32:20;;;;;;;17.27;11.73;;;6.20;81.50;;;;;;5074470;28;20036;-75
2022/01/19 12:35:11;;;;;;;21.95;10.23;;;6.20;82.10;;;;;;5073997;28;20420;-76
2022/01/19 12:37:44;;;;;;;23.55;12.60;;;6.20;82.40;;;;;;5064360;28;20386;-78
2022/01/19 12:40:24;;;;;;;20.55;12.23;;;6.20;81.80;;;;;;5075577;28;20055;-78
2022/01/19 12:43:08;;;;;;;24.90;14.02;;;6.20;82.00;;;;;;5075117;28;20025;-76
2022/01/19 12:46:01;;;;;;;21.80;11.25;;;6.20;82.40;;;;;;5075659;28;20025;-74
2022/01/19 12:48:40;;;;;;;18.90;10.40;;;6.20;83.00;;;;;;5074470;28;20119;-75
2022/01/19 12:51:29;;;;;;;15.60;10.02;;;6.20;82.70;;;;;;5075157;28;20382;-74
2022/01/19 12:53:55;;;;;;;22.17;11.73;;;6.20;82.80;;;;;;5074017;28;20124;-75
2022/01/19 12:56:26;;;;;;;19.80;10.23;;;6.20;82.50;;;;;;5075146;28;20060;-77
2022/01/19 12:59:01;;;;;;;19.13;11.80;;;6.30;83.50;;;;;;5073815;28;20044;-74
2022/01/19 13:01:30;;;;;;;16.73;10.32;;;6.30;83.70;;;;;;5065220;28;20057;-74
2022/01/19 13:03:58;;;;;;;21.42;12.38;;;6.30;83.50;;;;;;5055544;28;20028;-78
2022/01/19 13:06:39;;;;;;;23.80;12.65;;;6.30;83.50;;;;;;5055320;28;20051;-79
2022/01/19 13:09:12;;;;;;;27.03;12.47;;;6.40;83.50;;;;;;5055052;28;20466;-78
2022/01/19 13:11:46;;;;;;;24.55;11.85;;;6.40;83.70;;;;;;5054013;28;20040;-76
2022/01/19 13:14:13;;;;;;;23.75;13.20;;;6.40;83.50;;;;;;5055292;28;20369;-82
2022/01/19 13:16:44;;;;;;;17.38;11.48;;;6.40;83.80;;;;;;5038838;28;20044;-83
2022/01/19 13:19:29;;;;;;;19.55;11.60;;;6.40;83.50;;;;;;5053161;28;20043;-84
2022/01/19 13:22:08;;;;;;;21.77;13.45;;;6.40;83.50;;;;;;5053032;28;20079;-81
2022/01/19 13:24:37;;;;;;;21.15;12.45;;;6.40;83.30;;;;;;5052756;28;20031;-81
2022/01/19 13:27:07;;;;;;;19.55;11.55;;;6.40;83.50;;;;;;5054852;28;20100;-80
2022/01/19 13:29:39;;;;;;;25.17;11.52;;;6.40;83.20;;;;;;5052141;28;20049;-80
2022/01/19 13:32:14;;;;;;;18.20;11.32;;;6.50;83.00;;;;;;5052552;28;20536;-81
2022/01/19 13:34:53;;;;;;;18.90;12.82;;;6.50;83.20;;;;;;5054030;28;20044;-82
2022/01/19 13:37:21;;;;;;;22.70;12.82;;;6.50;83.10;;;;;;5052796;28;20027;-79
2022/01/19 13:40:19;;;;;;;21.65;12.43;;;6.50;82.90;;;;;;5052084;28;20031;-80
2022/01/19 13:42:56;;;;;;;24.67;13.40;;;6.50;83.40;;;;;;5044827;28;20037;-80
2022/01/19 13:45:48;;;;;;;26.13;14.13;;;6.40;83.30;;;;;;5052310;28;20440;-81
2022/01/19 13:51:14;;;;;;;27.20;14.20;;;6.40;83.30;;;;;;5053984;28;20515;-81
2022/01/19 13:53:51;;;;;;;25.50;13.73;;;6.40;83.00;;;;;;5056985;28;20484;-82
2022/01/19 13:56:44;;;;;;;27.13;13.20;;;6.40;82.40;;;;;;5065911;28;20036;-82
2022/01/19 13:59:23;;;;;;;26.88;14.70;;;6.40;82.30;;;;;;5063180;28;20045;-83
2022/01/19 14:02:04;;;;;;;24.70;13.40;;;6.40;82.20;;;;;;5058056;28;20040;-82
2022/01/19 14:04:50;;;;;;;20.15;11.40;;;6.30;82.20;;;;;;5064051;28;20029;-80
2022/01/19 14:07:17;;;;;;;20.83;11.77;;;6.30;81.70;;;;;;5074277;28;20116;-81
2022/01/19 14:09:49;;;;;;;20.10;12.05;;;6.20;81.60;;;;;;5060286;28;20504;-77
2022/01/19 14:12:19;;;;;;;21.48;12.10;;;6.10;81.70;;;;;;5053920;28;20421;-77
2022/01/19 14:14:49;;;;;;;22.52;12.45;;;6.00;81.80;;;;;;5053323;28;20048;-79
2022/01/19 14:17:30;;;;;;;22.38;13.77;;;5.90;81.90;;;;;;5054149;28;20095;-79
2022/01/19 14:19:58;;;;;;;26.33;14.10;;;5.90;82.40;;;;;;5053806;28;20284;-79
2022/01/19 14:22:34;;;;;;;22.95;13.77;;;5.80;82.70;;;;;;5054132;28;20032;-80
2022/01/19 14:25:10;;;;;;;25.00;14.30;;;5.80;83.40;;;;;;5053582;28;20158;-80
2022/01/19 14:27:57;;;;;;;25.00;14.02;;;5.70;83.00;;;;;;5053073;28;20082;-79
2022/01/19 14:30:29;;;;;;;24.90;14.02;;;5.70;83.40;;;;;;5054197;28;20029;-78